Etusivu
METAR-TAF:

METAR-TAF

Lentoasemat :

Huatulco, Meksiko

Leveyspiiri: 15-47N, Pituuspiiri: 096-16W, korkeus merenpinnasta: 143 m

Tämänhetkinen sää

Tämä raportti tehtiin 10 tuntia ja 19 minuuttia sitten, kello 01.45 UTC
tyyntä
Lämpötila 27°C
Kosteus 74%
Ilmanpaine 1011 hPa
Näkyvyys: 11.3 km
Hajanaisia pilviä 10000 ft:n korkeudessa

METAR: MMBT 170145Z 00000KT 7SM SCT100 27/22 A2984 RMK 8/030

Aika: 06:04 (12:04 UTC)

Sääennuste

Tämä raportti tehtiin 7 tuntia ja 45 minuuttia sitten, kello 04.19 UTC
Ennuste voimassa 17. päivästä klo 06 UTC - 18. päivään klo 06 UTC
Tuuli kn pohjoisesta
Näkyvyys: 10 km
Hajanaisia pilviä 3000 ft:n korkeudessa
From 17. päivästä klo 1800 UTC
Tuuli 10 kn etelästä/lounaasta
Näkyvyys: 10 km
Hajanaisia pilviä 2000 ft:n korkeudessa
From 18. päivästä klo 0200 UTC
Tuuli kn pohjoisesta
Näkyvyys: 10 km
Hajanaisia pilviä 3000 ft:n korkeudessa

TAF: MMBT 170419Z 1706/1806 00000KT P6SM SCT030 FM171800 20010KT P6SM SCT020 FM180200 00000KT P6SM SCT030

Säähavainnot ja -ennusteet yli 4000 lentoasemalta (METAR- ja TAF-raportit).

Käytössä olevat sääasemat on merkitty karttaan keltaisilla ja punaisilla pisteillä.

Aseta hiiri pisteen päälle nähdäksesi sääaseman nimen.

Klikkaa sitten nähdäksesi säähavainnot ja -ennusteet.

Kartan vaihtaminen: klikkaa mustalla rastilla varustettuja vihreitä pisteitä, niin voit zoomata sisään; viivalla varustettua vihreää pistettä, niin voit zoomata ulos tai vihreitä nuolia, niin pääset viereisille kartoille.


METAR-TAF: